createdAt,value
2019-05-22T00:00:16.051Z,22.43
2019-05-22T00:01:16.032Z,22.52
2019-05-22T00:02:16.028Z,22.42
2019-05-22T00:03:16.021Z,22.45
2019-05-22T00:04:16.023Z,22.40
2019-05-22T00:05:16.012Z,22.40
2019-05-22T00:06:15.992Z,22.45
2019-05-22T00:07:16.003Z,22.45
2019-05-22T00:08:15.986Z,22.43
2019-05-22T00:09:15.976Z,22.39
2019-05-22T00:10:15.969Z,22.40
2019-05-22T00:11:15.967Z,22.40
2019-05-22T00:12:15.954Z,22.42
2019-05-22T00:13:15.945Z,22.42
2019-05-22T00:14:15.943Z,22.45
2019-05-22T00:15:16.092Z,22.43
2019-05-22T00:16:15.928Z,22.46
2019-05-22T00:17:15.915Z,22.46
2019-05-22T00:18:15.906Z,22.42
2019-05-22T00:19:15.902Z,22.45
2019-05-22T00:20:15.899Z,22.46
2019-05-22T00:21:15.903Z,22.46
2019-05-22T00:22:15.902Z,22.51
2019-05-22T00:23:15.889Z,22.42
2019-05-22T00:24:15.884Z,22.51
2019-05-22T00:25:15.910Z,22.43
2019-05-22T00:26:15.884Z,22.43
2019-05-22T00:27:15.879Z,22.45
2019-05-22T00:28:15.870Z,22.40
2019-05-22T00:29:15.864Z,22.37
2019-05-22T00:30:15.857Z,22.49
2019-05-22T00:31:15.849Z,22.43
2019-05-22T00:32:15.928Z,22.42
2019-05-22T00:33:15.836Z,22.43
2019-05-22T00:34:15.821Z,22.42
2019-05-22T00:35:15.811Z,22.43
2019-05-22T00:36:15.802Z,22.47
2019-05-22T00:37:15.799Z,22.40
2019-05-22T00:38:15.799Z,22.45
2019-05-22T00:39:15.784Z,22.43
2019-05-22T00:40:15.779Z,22.43
2019-05-22T00:41:15.769Z,22.43
2019-05-22T00:42:15.762Z,22.47
2019-05-22T00:43:15.768Z,22.40
2019-05-22T00:44:15.746Z,22.46
2019-05-22T00:45:15.742Z,22.39
2019-05-22T00:46:15.729Z,22.45
2019-05-22T00:47:15.727Z,22.43
2019-05-22T00:48:15.714Z,22.37
2019-05-22T00:49:15.708Z,22.43
2019-05-22T00:50:15.697Z,22.47
2019-05-22T00:51:15.686Z,22.45
2019-05-22T00:52:15.683Z,22.43
2019-05-22T00:53:15.674Z,22.43
2019-05-22T00:54:15.675Z,22.47
2019-05-22T00:55:15.664Z,22.37
2019-05-22T00:56:15.653Z,22.43
2019-05-22T00:57:15.642Z,22.45
2019-05-22T00:58:15.639Z,22.43
2019-05-22T00:59:15.630Z,22.39
2019-05-22T01:00:15.622Z,22.42
2019-05-22T01:01:15.608Z,22.39
2019-05-22T01:02:15.623Z,22.43
2019-05-22T01:03:15.615Z,22.43
2019-05-22T01:04:15.609Z,22.40
2019-05-22T01:05:15.614Z,22.46
2019-05-22T01:06:15.591Z,22.43
2019-05-22T01:07:15.582Z,22.45
2019-05-22T01:08:15.591Z,22.45
2019-05-22T01:09:15.592Z,22.45
2019-05-22T01:10:15.578Z,22.42
2019-05-22T01:11:15.583Z,22.40
2019-05-22T01:12:15.567Z,22.45
2019-05-22T01:13:15.560Z,22.46
2019-05-22T01:14:15.570Z,22.43
2019-05-22T01:15:15.565Z,22.36
2019-05-22T01:16:15.564Z,22.40
2019-05-22T01:17:15.552Z,22.47
2019-05-22T01:18:15.540Z,22.45
2019-05-22T01:19:15.536Z,22.37
2019-05-22T01:20:15.524Z,22.43
2019-05-22T01:21:15.528Z,22.46
2019-05-22T01:22:15.510Z,22.39
2019-05-22T01:23:15.502Z,22.42
2019-05-22T01:24:15.492Z,22.45
2019-05-22T01:25:15.483Z,22.42
2019-05-22T01:26:15.498Z,22.39
2019-05-22T01:27:15.485Z,22.45
2019-05-22T01:28:15.496Z,22.51
2019-05-22T01:29:15.484Z,22.37
2019-05-22T01:30:15.485Z,22.39
2019-05-22T01:31:15.520Z,22.33
2019-05-22T01:32:15.471Z,22.46
2019-05-22T01:33:15.454Z,22.43
2019-05-22T01:34:15.449Z,22.46
2019-05-22T01:35:15.449Z,22.47
2019-05-22T01:36:15.443Z,22.45
2019-05-22T01:37:15.447Z,22.36
2019-05-22T01:38:15.433Z,22.39
2019-05-22T01:39:15.477Z,22.42
2019-05-22T01:40:15.414Z,22.46
2019-05-22T01:41:15.407Z,22.45
2019-05-22T01:42:15.612Z,22.43
2019-05-22T01:43:15.388Z,22.36
2019-05-22T01:44:15.392Z,22.47
2019-05-22T01:45:15.388Z,22.46
2019-05-22T01:46:15.382Z,22.46
2019-05-22T01:47:15.373Z,22.40
2019-05-22T01:48:15.389Z,22.42
2019-05-22T01:49:15.367Z,22.37
2019-05-22T01:50:15.358Z,22.37
2019-05-22T01:51:15.356Z,22.42
2019-05-22T01:52:15.338Z,22.43
2019-05-22T01:53:15.336Z,22.30
2019-05-22T01:54:15.320Z,22.37
2019-05-22T01:55:15.322Z,22.46
2019-05-22T01:56:15.317Z,22.37
2019-05-22T01:57:15.300Z,22.45
2019-05-22T01:58:15.291Z,22.40
2019-05-22T01:59:15.288Z,22.37
2019-05-22T02:00:15.274Z,22.43
2019-05-22T02:01:15.271Z,22.42
2019-05-22T02:02:15.257Z,22.47
2019-05-22T02:03:15.247Z,22.43
2019-05-22T02:04:15.264Z,22.35
2019-05-22T02:05:15.240Z,22.37
2019-05-22T02:06:15.226Z,22.42
2019-05-22T02:07:15.217Z,22.42
2019-05-22T02:08:15.208Z,22.33
2019-05-22T02:09:15.198Z,22.36
2019-05-22T02:10:15.201Z,22.37
2019-05-22T02:11:15.184Z,22.43
2019-05-22T02:12:15.176Z,22.33
2019-05-22T02:13:15.169Z,22.35
2019-05-22T02:14:15.159Z,22.45
2019-05-22T02:15:15.154Z,22.39
2019-05-22T02:16:15.167Z,22.46
2019-05-22T02:17:15.157Z,22.36
2019-05-22T02:18:15.147Z,22.43
2019-05-22T02:19:15.140Z,22.43
2019-05-22T02:20:15.141Z,22.40
2019-05-22T02:21:15.138Z,22.42
2019-05-22T02:22:15.129Z,22.39
2019-05-22T02:23:15.126Z,22.46
2019-05-22T02:24:15.123Z,22.39
2019-05-22T02:25:15.123Z,22.40
2019-05-22T02:26:15.103Z,22.28
2019-05-22T02:27:15.101Z,22.40
2019-05-22T02:28:15.100Z,22.36
2019-05-22T02:29:15.094Z,22.40
2019-05-22T02:30:15.087Z,22.39
2019-05-22T02:31:15.092Z,22.45
2019-05-22T02:32:15.071Z,22.37
2019-05-22T02:33:15.066Z,22.43
2019-05-22T02:34:15.097Z,22.35
2019-05-22T02:35:15.047Z,22.42
2019-05-22T02:36:15.049Z,22.37
2019-05-22T02:37:15.054Z,22.39
2019-05-22T02:38:15.047Z,22.42
2019-05-22T02:39:15.039Z,22.36
2019-05-22T02:40:15.038Z,22.42
2019-05-22T02:41:15.037Z,22.33
2019-05-22T02:42:15.045Z,22.46
2019-05-22T02:43:15.003Z,22.42
2019-05-22T02:44:14.994Z,22.43
2019-05-22T02:45:14.985Z,22.47
2019-05-22T02:46:14.981Z,22.28
2019-05-22T02:47:19.834Z,22.46
2019-05-22T02:48:15.964Z,22.49
2019-05-22T02:49:14.953Z,22.36
2019-05-22T02:50:14.961Z,22.42
2019-05-22T02:51:14.941Z,22.42
2019-05-22T02:52:14.938Z,22.35
2019-05-22T02:53:14.956Z,22.40
2019-05-22T02:54:14.909Z,22.39
2019-05-22T02:55:14.919Z,22.42
2019-05-22T02:56:14.915Z,22.30
2019-05-22T02:57:14.914Z,22.45
2019-05-22T02:58:14.906Z,22.40
2019-05-22T02:59:14.888Z,22.42
2019-05-22T03:00:14.885Z,22.37
2019-05-22T03:01:14.874Z,22.42
2019-05-22T03:02:14.877Z,22.46
2019-05-22T03:03:14.858Z,22.42
2019-05-22T03:04:14.861Z,22.36
2019-05-22T03:05:14.841Z,22.42
2019-05-22T03:06:14.837Z,22.42
2019-05-22T03:07:14.831Z,22.45
2019-05-22T03:08:14.823Z,22.39
2019-05-22T03:09:14.899Z,22.28
2019-05-22T03:10:14.806Z,22.39
2019-05-22T03:11:14.798Z,22.43
2019-05-22T03:12:14.801Z,22.37
2019-05-22T03:13:14.798Z,22.43
2019-05-22T03:14:14.812Z,22.35
2019-05-22T03:15:14.796Z,22.43
2019-05-22T03:16:14.792Z,22.36
2019-05-22T03:17:14.779Z,22.39
2019-05-22T03:18:14.773Z,22.35
2019-05-22T03:19:14.775Z,22.35
2019-05-22T03:20:14.784Z,22.39
2019-05-22T03:21:14.784Z,22.39
2019-05-22T03:22:14.773Z,22.39
2019-05-22T03:23:14.785Z,22.39
2019-05-22T03:24:14.781Z,22.42
2019-05-22T03:25:14.774Z,22.40
2019-05-22T03:26:14.781Z,22.40
2019-05-22T03:27:14.758Z,22.40
2019-05-22T03:28:14.752Z,22.42
2019-05-22T03:29:14.747Z,22.47
2019-05-22T03:30:14.751Z,22.40
2019-05-22T03:31:14.747Z,22.42
2019-05-22T03:32:14.740Z,22.35
2019-05-22T03:33:14.743Z,22.39
2019-05-22T03:34:14.721Z,22.40
2019-05-22T03:35:14.731Z,22.42
2019-05-22T03:36:14.702Z,22.42
2019-05-22T03:37:14.764Z,22.37
2019-05-22T03:38:14.691Z,22.39
2019-05-22T03:39:14.687Z,22.31
2019-05-22T03:40:14.681Z,22.28
2019-05-22T03:41:14.674Z,22.25
2019-05-22T03:42:14.669Z,22.31
2019-05-22T03:43:14.671Z,22.42
2019-05-22T03:44:14.653Z,22.33
2019-05-22T03:45:14.653Z,22.37
2019-05-22T03:46:14.649Z,22.40
2019-05-22T03:47:14.635Z,22.43
2019-05-22T03:48:14.639Z,22.35
2019-05-22T03:49:29.292Z,22.42
2019-05-22T03:50:15.613Z,22.28
2019-05-22T03:51:14.646Z,22.39
2019-05-22T03:52:14.617Z,22.27
2019-05-22T03:53:14.626Z,22.37
2019-05-22T03:54:14.604Z,22.39
2019-05-22T03:55:14.593Z,22.42
2019-05-22T03:56:14.607Z,22.30
2019-05-22T03:57:14.607Z,22.27
2019-05-22T03:58:14.586Z,22.36
2019-05-22T03:59:14.588Z,22.28
2019-05-22T04:00:14.563Z,22.30
2019-05-22T04:01:14.559Z,22.42
2019-05-22T04:02:14.574Z,22.33
2019-05-22T04:03:14.559Z,22.33
2019-05-22T04:04:14.557Z,22.39
2019-05-22T04:05:14.542Z,22.37
2019-05-22T04:06:14.546Z,22.39
2019-05-22T04:07:14.535Z,22.40
2019-05-22T04:08:14.532Z,22.40
2019-05-22T04:09:14.507Z,22.42
2019-05-22T04:10:14.507Z,22.39
2019-05-22T04:11:14.491Z,22.37
2019-05-22T04:12:14.488Z,22.39
2019-05-22T04:13:14.512Z,22.43
2019-05-22T04:14:14.494Z,22.28
2019-05-22T04:15:14.593Z,22.36
2019-05-22T04:16:14.499Z,22.43
2019-05-22T04:17:14.489Z,22.27
2019-05-22T04:18:14.492Z,22.30
2019-05-22T04:19:14.475Z,22.40
2019-05-22T04:20:14.466Z,22.43
2019-05-22T04:21:14.484Z,22.33
2019-05-22T04:22:14.466Z,22.27
2019-05-22T04:23:14.447Z,22.35
2019-05-22T04:24:14.442Z,22.37
2019-05-22T04:25:14.430Z,22.39
2019-05-22T04:26:14.434Z,22.37
2019-05-22T04:27:14.419Z,22.31
2019-05-22T04:28:14.411Z,22.36
2019-05-22T04:29:14.404Z,22.43
2019-05-22T04:30:14.408Z,22.36
2019-05-22T04:31:14.400Z,22.33
2019-05-22T04:32:14.384Z,22.31
2019-05-22T04:33:14.374Z,22.24
2019-05-22T04:34:14.357Z,22.42
2019-05-22T04:35:14.362Z,22.40
2019-05-22T04:36:14.354Z,22.36
2019-05-22T04:37:14.387Z,22.30
2019-05-22T04:38:14.369Z,22.27
2019-05-22T04:39:14.361Z,22.37
2019-05-22T04:40:14.351Z,22.36
2019-05-22T04:41:14.346Z,22.31
2019-05-22T04:42:14.337Z,22.30
2019-05-22T04:43:14.353Z,22.36
2019-05-22T04:44:14.332Z,22.33
2019-05-22T04:45:14.317Z,22.40
2019-05-22T04:46:14.311Z,22.31
2019-05-22T04:47:14.305Z,22.39
2019-05-22T04:48:14.390Z,22.36
2019-05-22T04:49:14.300Z,22.39
2019-05-22T04:50:14.271Z,22.28
2019-05-22T04:51:14.279Z,22.42
2019-05-22T04:52:14.251Z,22.28
2019-05-22T04:53:14.253Z,22.40
2019-05-22T04:54:14.252Z,22.25
2019-05-22T04:55:14.234Z,22.30
2019-05-22T04:56:14.224Z,22.30
2019-05-22T04:57:14.229Z,22.37
2019-05-22T04:58:14.215Z,22.33
2019-05-22T04:59:14.284Z,22.37
2019-05-22T05:00:14.191Z,22.36
2019-05-22T05:01:14.187Z,22.33
2019-05-22T05:02:14.176Z,22.33
2019-05-22T05:03:14.172Z,22.31
2019-05-22T05:04:14.158Z,22.36
2019-05-22T05:05:14.161Z,22.35
2019-05-22T05:06:14.182Z,22.40
2019-05-22T05:07:14.131Z,22.42
2019-05-22T05:08:14.133Z,22.35
2019-05-22T05:09:14.131Z,22.31
2019-05-22T05:10:14.120Z,22.36
2019-05-22T05:11:14.103Z,22.31
2019-05-22T05:12:14.094Z,22.33
2019-05-22T05:13:14.088Z,22.27
2019-05-22T05:14:14.083Z,22.33
2019-05-22T05:15:14.072Z,22.30
2019-05-22T05:16:14.070Z,22.35
2019-05-22T05:17:14.059Z,22.31
2019-05-22T05:18:14.053Z,22.37
2019-05-22T05:19:14.037Z,22.33
2019-05-22T05:20:22.173Z,22.33
2019-05-22T05:21:15.029Z,22.36
2019-05-22T05:22:14.035Z,22.33
2019-05-22T05:23:14.065Z,22.30
2019-05-22T05:24:14.041Z,22.30
2019-05-22T05:25:14.029Z,22.39
2019-05-22T05:26:14.018Z,22.37
2019-05-22T05:27:14.080Z,22.39
2019-05-22T05:28:14.001Z,22.33
2019-05-22T05:29:13.996Z,22.33
2019-05-22T05:30:14.000Z,22.36
2019-05-22T05:31:13.979Z,22.35
2019-05-22T05:32:13.995Z,22.37
2019-05-22T05:33:14.000Z,22.35
2019-05-22T05:34:13.962Z,22.42
2019-05-22T05:35:13.949Z,22.33
2019-05-22T05:36:13.940Z,22.35
2019-05-22T05:37:13.944Z,22.39
2019-05-22T05:38:13.932Z,22.28
2019-05-22T05:39:13.916Z,22.33
2019-05-22T05:40:13.909Z,22.31
2019-05-22T05:41:13.903Z,22.37
2019-05-22T05:42:13.899Z,22.30
2019-05-22T05:43:13.887Z,22.37
2019-05-22T05:44:13.877Z,22.39
2019-05-22T05:45:13.964Z,22.37
2019-05-22T05:46:13.877Z,22.39
2019-05-22T05:47:13.854Z,22.39
2019-05-22T05:48:13.843Z,22.39
2019-05-22T05:49:13.846Z,22.22
2019-05-22T05:50:13.869Z,22.39
2019-05-22T05:51:13.827Z,22.35
2019-05-22T05:52:13.838Z,22.37
2019-05-22T05:53:13.821Z,22.40
2019-05-22T05:54:13.821Z,22.37
2019-05-22T05:55:13.809Z,22.33
2019-05-22T05:56:13.820Z,22.35
2019-05-22T05:57:13.794Z,22.45
2019-05-22T05:58:13.786Z,22.36
2019-05-22T05:59:13.785Z,22.25
2019-05-22T06:00:13.766Z,22.39
2019-05-22T06:01:13.787Z,22.33
2019-05-22T06:02:13.779Z,22.28
2019-05-22T06:03:13.765Z,22.40
2019-05-22T06:04:13.761Z,22.40
2019-05-22T06:05:13.765Z,22.35
2019-05-22T06:06:13.757Z,22.40
2019-05-22T06:07:13.767Z,22.42
2019-05-22T06:08:13.737Z,22.36
2019-05-22T06:09:13.730Z,22.37
2019-05-22T06:10:13.739Z,22.31
2019-05-22T06:11:13.722Z,22.35
2019-05-22T06:12:13.715Z,22.40
2019-05-22T06:13:13.731Z,22.36
2019-05-22T06:14:13.688Z,22.30
2019-05-22T06:15:13.689Z,22.47
2019-05-22T06:16:13.688Z,22.33
2019-05-22T06:17:13.684Z,22.25
2019-05-22T06:18:13.659Z,22.35
2019-05-22T06:19:13.667Z,22.40
2019-05-22T06:20:13.640Z,22.37
2019-05-22T06:21:13.636Z,22.42
2019-05-22T06:22:13.623Z,22.37
2019-05-22T06:23:13.618Z,22.35
2019-05-22T06:24:13.611Z,22.40
2019-05-22T06:25:13.711Z,22.36
2019-05-22T06:26:13.596Z,22.45
2019-05-22T06:27:13.587Z,22.40
2019-05-22T06:28:13.588Z,22.37
2019-05-22T06:29:13.581Z,22.40
2019-05-22T06:30:13.559Z,22.43
2019-05-22T06:31:13.556Z,22.35
2019-05-22T06:32:13.579Z,22.40
2019-05-22T06:33:13.623Z,22.42
2019-05-22T06:34:13.536Z,22.36
2019-05-22T06:35:13.571Z,22.43
2019-05-22T06:36:13.521Z,22.42
2019-05-22T06:37:13.529Z,22.42
2019-05-22T06:38:13.540Z,22.25
2019-05-22T06:39:13.528Z,22.47
2019-05-22T06:40:13.507Z,22.31
2019-05-22T06:41:13.501Z,22.35
2019-05-22T06:42:13.493Z,22.43
2019-05-22T06:43:13.501Z,22.43
2019-05-22T06:44:13.479Z,22.33
2019-05-22T06:45:13.471Z,22.40
2019-05-22T06:46:13.486Z,22.39
2019-05-22T06:47:13.467Z,22.42
2019-05-22T06:48:13.445Z,22.40
2019-05-22T06:49:13.441Z,22.39
2019-05-22T06:50:13.427Z,22.40
2019-05-22T06:51:19.395Z,22.39
2019-05-22T06:52:14.407Z,22.54
2019-05-22T06:53:13.407Z,22.43
2019-05-22T06:54:13.403Z,22.46
2019-05-22T06:55:13.405Z,22.37
2019-05-22T06:56:13.389Z,22.43
2019-05-22T06:57:13.455Z,22.40
2019-05-22T06:58:13.373Z,22.40
2019-05-22T06:59:13.515Z,22.42
2019-05-22T07:00:17.867Z,22.49
2019-05-22T07:01:13.366Z,22.43
2019-05-22T07:02:13.414Z,22.42
2019-05-22T07:03:13.337Z,22.47
2019-05-22T07:04:13.329Z,22.43
2019-05-22T07:05:13.349Z,22.46
2019-05-22T07:06:13.323Z,22.37
2019-05-22T07:07:13.316Z,22.42
2019-05-22T07:08:13.302Z,22.47
2019-05-22T07:09:13.290Z,22.40
2019-05-22T07:10:13.375Z,22.39
2019-05-22T07:11:13.288Z,22.40
2019-05-22T07:12:13.269Z,22.45
2019-05-22T07:13:13.260Z,22.51
2019-05-22T07:14:13.284Z,22.46
2019-05-22T07:15:13.248Z,22.42
2019-05-22T07:16:13.261Z,22.40
2019-05-22T07:17:13.238Z,22.43
2019-05-22T07:18:13.614Z,22.52
2019-05-22T07:19:13.212Z,22.46
2019-05-22T07:20:13.276Z,22.54
2019-05-22T07:21:13.225Z,22.47
2019-05-22T07:22:13.197Z,22.40
2019-05-22T07:23:13.191Z,22.43
2019-05-22T07:24:13.203Z,22.49
2019-05-22T07:25:13.172Z,22.52
2019-05-22T07:26:13.175Z,22.45
2019-05-22T07:27:13.193Z,22.46
2019-05-22T07:28:13.168Z,22.47
2019-05-22T07:29:13.169Z,22.54
2019-05-22T07:30:13.148Z,22.52
2019-05-22T07:31:13.222Z,22.51
2019-05-22T07:32:13.241Z,22.42
2019-05-22T07:33:13.162Z,22.49
2019-05-22T07:34:13.139Z,22.46
2019-05-22T07:35:13.141Z,22.57
2019-05-22T07:36:16.751Z,22.40
2019-05-22T07:37:13.097Z,22.39
2019-05-22T07:38:13.095Z,22.47
2019-05-22T07:39:13.083Z,22.58
2019-05-22T07:40:13.078Z,22.43
2019-05-22T07:41:13.071Z,22.40
2019-05-22T07:42:13.060Z,22.51
2019-05-22T07:43:13.073Z,22.43
2019-05-22T07:44:13.075Z,22.49
2019-05-22T07:45:13.061Z,22.40
2019-05-22T07:46:13.064Z,22.42
2019-05-22T07:47:13.039Z,22.39
2019-05-22T07:48:13.759Z,22.57
2019-05-22T07:49:13.037Z,22.37
2019-05-22T07:50:13.017Z,22.42
2019-05-22T07:51:13.010Z,22.49
2019-05-22T07:52:13.003Z,22.47
2019-05-22T07:53:12.996Z,22.47
2019-05-22T07:54:12.990Z,22.40
2019-05-22T07:55:12.979Z,22.58
2019-05-22T07:56:13.008Z,22.49
2019-05-22T07:57:12.971Z,22.46
2019-05-22T07:58:12.959Z,22.42
2019-05-22T07:59:12.971Z,22.55
2019-05-22T08:00:12.938Z,22.49
2019-05-22T08:01:12.931Z,22.51
2019-05-22T08:02:12.924Z,22.46
2019-05-22T08:03:12.917Z,22.42
2019-05-22T08:04:12.910Z,22.51
2019-05-22T08:05:12.924Z,22.43
2019-05-22T08:06:12.891Z,22.47
2019-05-22T08:07:12.885Z,22.49
2019-05-22T08:08:12.882Z,22.40
2019-05-22T08:09:12.874Z,22.40
2019-05-22T08:10:12.873Z,22.54
2019-05-22T08:11:12.859Z,22.60
2019-05-22T08:12:12.873Z,22.51
2019-05-22T08:13:12.865Z,22.52
2019-05-22T08:14:12.855Z,22.57
2019-05-22T08:15:12.862Z,22.51
2019-05-22T08:16:12.843Z,22.51
2019-05-22T08:17:12.831Z,22.57
2019-05-22T08:18:12.847Z,22.54
2019-05-22T08:19:12.830Z,22.51
2019-05-22T08:20:12.812Z,22.51
2019-05-22T08:21:12.813Z,22.52
2019-05-22T08:22:12.800Z,22.55
2019-05-22T08:23:12.789Z,22.58
2019-05-22T08:24:12.819Z,22.55
2019-05-22T08:25:12.766Z,22.60
2019-05-22T08:26:12.780Z,22.61
2019-05-22T08:27:12.772Z,22.57
2019-05-22T08:28:12.765Z,22.57
2019-05-22T08:29:12.758Z,22.55
2019-05-22T08:30:12.743Z,22.57
2019-05-22T08:31:12.736Z,22.52
2019-05-22T08:32:12.732Z,22.57
2019-05-22T08:33:12.726Z,22.54
2019-05-22T08:34:12.720Z,22.55
2019-05-22T08:35:12.713Z,22.45
2019-05-22T08:36:12.806Z,22.58
2019-05-22T08:37:12.695Z,22.52
2019-05-22T08:38:12.690Z,22.61
2019-05-22T08:39:12.677Z,22.55
2019-05-22T08:40:12.710Z,22.51
2019-05-22T08:41:12.704Z,22.45
2019-05-22T08:42:12.698Z,22.51
2019-05-22T08:43:12.799Z,22.51
2019-05-22T08:44:16.553Z,22.57
2019-05-22T08:45:12.666Z,22.57
2019-05-22T08:46:12.679Z,22.61
2019-05-22T08:47:12.660Z,22.64
2019-05-22T08:48:12.669Z,22.61
2019-05-22T08:49:12.729Z,22.54
2019-05-22T08:50:12.653Z,22.58
2019-05-22T08:51:12.656Z,22.46
2019-05-22T08:52:23.127Z,22.46
2019-05-22T08:53:13.630Z,22.57
2019-05-22T08:54:12.628Z,22.55
2019-05-22T08:55:12.611Z,22.55
2019-05-22T08:56:12.605Z,22.57
2019-05-22T08:57:12.598Z,22.58
2019-05-22T08:58:12.639Z,22.54
2019-05-22T08:59:19.435Z,22.55
2019-05-22T09:00:13.581Z,22.49
2019-05-22T09:01:12.592Z,22.67
2019-05-22T09:02:12.557Z,22.51
2019-05-22T09:03:12.564Z,22.60
2019-05-22T09:04:12.681Z,22.54
2019-05-22T09:05:12.601Z,22.55
2019-05-22T09:06:12.552Z,22.58
2019-05-22T09:07:12.521Z,22.61
2019-05-22T09:08:12.545Z,22.51
2019-05-22T09:09:12.536Z,22.58
2019-05-22T09:10:12.521Z,22.57
2019-05-22T09:11:12.538Z,22.62
2019-05-22T09:12:12.516Z,22.54
2019-05-22T09:13:12.529Z,22.58
2019-05-22T09:14:12.501Z,22.61
2019-05-22T09:15:12.502Z,22.58
2019-05-22T09:16:12.516Z,22.57
2019-05-22T09:17:12.479Z,22.57
2019-05-22T09:18:12.528Z,22.61
2019-05-22T09:19:12.729Z,22.62
2019-05-22T09:20:12.466Z,22.67
2019-05-22T09:21:12.453Z,22.57
2019-05-22T09:22:12.487Z,22.64
2019-05-22T09:23:12.436Z,22.61
2019-05-22T09:24:12.434Z,22.60
2019-05-22T09:25:12.768Z,22.64
2019-05-22T09:26:12.442Z,22.68
2019-05-22T09:27:12.428Z,22.60
2019-05-22T09:28:12.419Z,22.61
2019-05-22T09:29:12.410Z,22.62
2019-05-22T09:30:12.399Z,22.57
2019-05-22T09:31:12.436Z,22.60
2019-05-22T09:32:12.380Z,22.67
2019-05-22T09:33:12.436Z,22.62
2019-05-22T09:34:12.368Z,22.62
2019-05-22T09:35:12.360Z,22.57
2019-05-22T09:36:12.345Z,22.65
2019-05-22T09:37:12.339Z,22.70
2019-05-22T09:38:12.350Z,22.60
2019-05-22T09:39:12.326Z,22.58
2019-05-22T09:40:12.318Z,22.60
2019-05-22T09:41:12.362Z,22.72
2019-05-22T09:42:12.309Z,22.73
2019-05-22T09:43:12.318Z,22.70
2019-05-22T09:44:15.283Z,22.67
2019-05-22T09:45:12.280Z,22.58
2019-05-22T09:46:12.269Z,22.60
2019-05-22T09:47:12.299Z,22.70
2019-05-22T09:48:12.257Z,22.62
2019-05-22T09:49:12.258Z,22.64
2019-05-22T09:50:12.248Z,22.61
2019-05-22T09:51:12.257Z,22.67
2019-05-22T09:52:12.232Z,22.61
2019-05-22T09:53:12.232Z,22.67
2019-05-22T09:54:12.225Z,22.61
2019-05-22T09:55:12.213Z,22.64
2019-05-22T09:56:12.204Z,22.62
2019-05-22T09:57:12.287Z,22.65
2019-05-22T09:58:12.188Z,22.61
2019-05-22T09:59:12.214Z,22.65
2019-05-22T10:00:12.182Z,22.60
2019-05-22T10:01:12.301Z,22.64
2019-05-22T10:02:12.157Z,22.68
2019-05-22T10:03:12.153Z,22.61
2019-05-22T10:04:12.143Z,22.61
2019-05-22T10:05:12.145Z,22.64
2019-05-22T10:06:12.129Z,22.62
2019-05-22T10:07:12.120Z,22.61
2019-05-22T10:08:12.254Z,22.65
2019-05-22T10:09:12.103Z,22.64
2019-05-22T10:10:12.120Z,22.61
2019-05-22T10:11:12.108Z,22.58
2019-05-22T10:12:12.094Z,22.68
2019-05-22T10:13:12.184Z,22.62
2019-05-22T10:14:12.081Z,22.58
2019-05-22T10:15:12.074Z,22.68
2019-05-22T10:16:12.102Z,22.61
2019-05-22T10:17:12.078Z,22.61
2019-05-22T10:18:12.059Z,22.67
2019-05-22T10:19:12.055Z,22.70
2019-05-22T10:20:12.051Z,22.65
2019-05-22T10:21:12.053Z,22.68
2019-05-22T10:22:12.034Z,22.61
2019-05-22T10:23:15.945Z,22.60
2019-05-22T10:24:12.030Z,22.64
2019-05-22T10:25:16.445Z,22.64
2019-05-22T10:26:13.020Z,22.68
2019-05-22T10:27:12.018Z,22.58
2019-05-22T10:28:12.020Z,22.61
2019-05-22T10:29:12.000Z,22.62
2019-05-22T10:30:11.979Z,22.70
2019-05-22T10:31:13.774Z,22.72
2019-05-22T10:32:11.970Z,22.67
2019-05-22T10:33:11.998Z,22.64
2019-05-22T10:34:11.949Z,22.62
2019-05-22T10:35:11.946Z,22.61
2019-05-22T10:36:11.934Z,22.62
2019-05-22T10:37:11.957Z,22.65
2019-05-22T10:38:11.926Z,22.60
2019-05-22T10:39:11.930Z,22.73
2019-05-22T10:40:11.901Z,22.73
2019-05-22T10:41:11.893Z,22.73
2019-05-22T10:42:11.894Z,22.67
2019-05-22T10:43:11.892Z,22.64
2019-05-22T10:44:11.888Z,22.62
2019-05-22T10:45:11.876Z,22.70
2019-05-22T10:46:11.960Z,22.73
2019-05-22T10:47:11.882Z,22.72
2019-05-22T10:48:11.961Z,22.70
2019-05-22T10:49:11.881Z,22.72
2019-05-22T10:50:11.883Z,22.73
2019-05-22T10:51:11.873Z,22.72
2019-05-22T10:52:11.868Z,22.68
2019-05-22T10:53:11.856Z,22.73
2019-05-22T10:54:11.880Z,22.73
2019-05-22T10:55:11.936Z,22.73
2019-05-22T10:56:11.869Z,22.77
2019-05-22T10:57:11.826Z,22.67
2019-05-22T10:58:11.819Z,22.72
2019-05-22T10:59:11.824Z,22.73
2019-05-22T11:00:11.801Z,22.82
2019-05-22T11:01:11.791Z,22.77
2019-05-22T11:02:11.794Z,22.72
2019-05-22T11:03:11.790Z,22.72
2019-05-22T11:04:11.787Z,22.68
2019-05-22T11:05:11.788Z,22.76
2019-05-22T11:06:11.770Z,22.75
2019-05-22T11:07:11.765Z,22.70
2019-05-22T11:08:11.753Z,22.77
2019-05-22T11:09:11.759Z,22.75
2019-05-22T11:10:11.749Z,22.73
2019-05-22T11:11:11.729Z,22.77
2019-05-22T11:12:11.740Z,22.76
2019-05-22T11:13:11.731Z,22.73
2019-05-22T11:14:11.744Z,22.73
2019-05-22T11:15:11.713Z,22.83
2019-05-22T11:16:11.712Z,22.83
2019-05-22T11:17:11.729Z,22.90
2019-05-22T11:18:11.689Z,22.80
2019-05-22T11:19:12.166Z,22.85
2019-05-22T11:20:11.710Z,22.79
2019-05-22T11:21:11.739Z,22.79
2019-05-22T11:22:11.675Z,22.83
2019-05-22T11:23:11.665Z,22.86
2019-05-22T11:24:11.657Z,22.91
2019-05-22T11:25:11.654Z,22.76
2019-05-22T11:26:11.673Z,22.85
2019-05-22T11:27:11.708Z,22.82
2019-05-22T11:28:11.640Z,22.97
2019-05-22T11:29:11.628Z,22.91
2019-05-22T11:30:11.662Z,22.90
2019-05-22T11:31:11.640Z,22.86
2019-05-22T11:32:11.630Z,23.00
2019-05-22T11:33:11.659Z,22.94
2019-05-22T11:34:11.621Z,22.94
2019-05-22T11:35:11.613Z,22.90
2019-05-22T11:36:11.596Z,23.04
2019-05-22T11:37:11.636Z,22.97
2019-05-22T11:38:11.610Z,23.01
2019-05-22T11:39:11.585Z,22.95
2019-05-22T11:40:11.603Z,22.92
2019-05-22T11:41:11.559Z,23.05
2019-05-22T11:42:11.547Z,23.05
2019-05-22T11:43:11.551Z,23.02
2019-05-22T11:44:11.595Z,22.98
2019-05-22T11:45:11.532Z,23.07
2019-05-22T11:46:11.516Z,23.05
2019-05-22T11:47:11.506Z,23.01
2019-05-22T11:48:11.552Z,23.02
2019-05-22T11:49:11.505Z,23.10
2019-05-22T11:50:11.490Z,23.02
2019-05-22T11:51:11.495Z,23.13
2019-05-22T11:52:11.487Z,23.17
2019-05-22T11:53:11.473Z,23.04
2019-05-22T11:54:11.548Z,23.05
2019-05-22T11:55:11.461Z,23.02
2019-05-22T11:56:11.456Z,23.07
2019-05-22T11:57:11.434Z,23.09
2019-05-22T11:58:11.462Z,23.19
2019-05-22T11:59:11.422Z,23.12
2019-05-22T12:00:11.423Z,23.13
2019-05-22T12:01:11.410Z,23.12
2019-05-22T12:02:11.419Z,23.02
2019-05-22T12:03:11.416Z,23.16
2019-05-22T12:04:11.465Z,23.00
2019-05-22T12:05:11.482Z,23.04
2019-05-22T12:06:11.406Z,23.10
2019-05-22T12:07:11.393Z,23.04
2019-05-22T12:08:11.377Z,23.13
2019-05-22T12:09:11.368Z,23.10
2019-05-22T12:10:11.372Z,23.15
2019-05-22T12:11:11.430Z,23.05
2019-05-22T12:12:11.363Z,23.19
2019-05-22T12:13:11.787Z,23.25
2019-05-22T12:14:11.401Z,23.12
2019-05-22T12:15:11.347Z,23.10
2019-05-22T12:16:11.362Z,23.10
2019-05-22T12:17:11.364Z,23.16
2019-05-22T12:18:11.322Z,23.13
2019-05-22T12:19:11.318Z,23.10
2019-05-22T12:20:11.341Z,23.12
2019-05-22T12:21:11.300Z,23.23
2019-05-22T12:22:11.297Z,23.12
2019-05-22T12:23:11.342Z,23.09
2019-05-22T12:24:26.016Z,23.12
2019-05-22T12:25:12.267Z,23.15
2019-05-22T12:26:11.276Z,23.09
2019-05-22T12:27:11.276Z,23.22
2019-05-22T12:28:11.242Z,23.12
2019-05-22T12:29:11.235Z,23.13
2019-05-22T12:30:11.274Z,23.15
2019-05-22T12:31:11.237Z,23.19
2019-05-22T12:32:11.213Z,23.20
2019-05-22T12:33:13.987Z,23.13
2019-05-22T12:34:11.198Z,23.19
2019-05-22T12:35:11.212Z,23.19
2019-05-22T12:36:11.207Z,23.17
2019-05-22T12:37:11.219Z,23.15
2019-05-22T12:38:11.246Z,23.20
2019-05-22T12:39:11.209Z,23.17
2019-05-22T12:40:11.191Z,23.13
2019-05-22T12:41:11.182Z,23.15
2019-05-22T12:42:11.191Z,23.19
2019-05-22T12:43:11.191Z,23.16
2019-05-22T12:44:11.182Z,23.15
2019-05-22T12:45:11.161Z,23.12
2019-05-22T12:46:11.151Z,23.13
2019-05-22T12:47:11.130Z,23.12
2019-05-22T12:48:11.148Z,23.12
2019-05-22T12:49:11.125Z,23.22
2019-05-22T12:50:11.155Z,23.17
2019-05-22T12:51:11.113Z,23.17
2019-05-22T12:52:11.100Z,23.16